Time;durP1;ratioP1;P1;durP2;ratioP2;P2;SDS_P1;SDS_P2;PMS_P1;PMS_P2;Temp;Humidity;BMP_temperature;BMP_pressure;BME280_temperature;BME280_humidity;BME280_pressure;Samples;Min_cycle;Max_cycle;Signal;HPM_P1;HPM_P2
2022/04/16 00:04:26;;;;;;;5.03;2.30;;;6.20;99.90;;;;;;10264162;28;20368;-85
2022/04/16 00:09:28;;;;;;;4.30;3.53;;;7.00;99.90;;;;;;10273161;28;20308;-84
2022/04/16 00:14:31;;;;;;;5.43;2.10;;;9.60;99.90;;;;;;10264632;28;20380;-85
2022/04/16 00:19:34;;;;;;;4.67;3.20;;;7.80;99.90;;;;;;10280527;28;20277;-85
2022/04/16 00:24:36;;;;;;;2.57;1.90;;;9.60;99.90;;;;;;10280834;28;22186;-85
2022/04/16 00:29:39;;;;;;;4.77;2.00;;;8.10;97.50;;;;;;10280492;28;20944;-85
2022/04/16 00:34:42;;;;;;;4.13;3.60;;;5.80;99.90;;;;;;10280344;28;20304;-85
2022/04/16 00:39:44;;;;;;;5.27;2.63;;;9.30;99.90;;;;;;10279955;28;20224;-85
2022/04/16 00:44:47;;;;;;;4.97;2.87;;;8.00;99.90;;;;;;10278529;28;20297;-85
2022/04/16 00:49:50;;;;;;;6.93;2.33;;;9.00;99.90;;;;;;10272458;28;20321;-85
2022/04/16 00:54:55;;;;;;;4.93;2.63;;;7.20;98.10;;;;;;10264638;28;20302;-85
2022/04/16 01:00:00;;;;;;;5.53;3.13;;;8.80;97.90;;;;;;10281208;28;20323;-86
2022/04/16 01:05:05;;;;;;;2.53;2.33;;;6.50;99.90;;;;;;10278829;28;20316;-85
2022/04/16 01:10:07;;;;;;;2.60;1.97;;;7.00;99.90;;;;;;10254371;28;20665;-84
2022/04/16 01:15:13;;;;;;;2.77;2.57;;;6.30;98.90;;;;;;10283272;28;20646;-84
2022/04/16 01:20:17;;;;;;;4.33;2.00;;;7.40;99.90;;;;;;10270399;28;20217;-84
2022/04/16 01:25:19;;;;;;;2.30;1.67;;;4.70;99.90;;;;;;10266920;28;20424;-85
2022/04/16 01:30:23;;;;;;;1.90;1.70;;;5.00;99.90;;;;;;10264329;28;20237;-84
2022/04/16 01:35:26;;;;;;;5.97;2.90;;;5.80;99.90;;;;;;10279485;28;20320;-84
2022/04/16 01:40:28;;;;;;;8.63;1.90;;;6.00;99.90;;;;;;10266421;28;20304;-85
2022/04/16 01:45:33;;;;;;;3.67;1.80;;;4.80;99.90;;;;;;10272321;28;20240;-84
2022/04/16 01:50:36;;;;;;;2.70;2.40;;;3.70;99.90;;;;;;10280093;28;20253;-86
2022/04/16 01:55:39;;;;;;;1.63;1.53;;;5.10;99.90;;;;;;10282655;28;20295;-85
2022/04/16 02:00:41;;;;;;;4.80;3.40;;;4.90;99.90;;;;;;10288773;28;20301;-84
2022/04/16 02:05:44;;;;;;;3.73;2.60;;;5.90;99.90;;;;;;10278163;28;20458;-84
2022/04/16 02:10:46;;;;;;;2.63;2.43;;;5.80;99.90;;;;;;10263734;28;20327;-84
2022/04/16 02:15:49;;;;;;;5.10;2.63;;;5.20;99.90;;;;;;10269332;28;20337;-85
2022/04/16 02:20:51;;;;;;;2.80;2.03;;;7.00;99.90;;;;;;10276691;28;20321;-85
2022/04/16 02:25:54;;;;;;;3.90;2.47;;;5.20;99.90;;;;;;10276093;28;20371;-85
2022/04/16 02:30:56;;;;;;;3.30;2.87;;;7.10;99.90;;;;;;10281049;28;20319;-85
2022/04/16 02:35:59;;;;;;;3.60;3.07;;;9.50;99.90;;;;;;10256844;28;20340;-85
2022/04/16 02:41:02;;;;;;;3.70;2.07;;;8.10;99.90;;;;;;10284494;28;20370;-85
2022/04/16 02:51:26;;;;;;;2.37;1.63;;;7.30;99.90;;;;;;10283800;28;20260;-85
2022/04/16 02:56:29;;;;;;;4.50;2.20;;;6.90;99.90;;;;;;10285598;28;20214;-85
2022/04/16 03:01:32;;;;;;;3.43;1.43;;;6.00;99.90;;;;;;10284958;28;20437;-84
2022/04/16 03:06:35;;;;;;;2.87;2.67;;;8.80;99.90;;;;;;10285569;28;20318;-85
2022/04/16 03:11:38;;;;;;;2.87;1.80;;;9.60;99.90;;;;;;10283703;28;20317;-85
2022/04/16 03:22:02;;;;;;;4.90;1.57;;;8.80;99.90;;;;;;10285128;28;20316;-85
2022/04/16 03:27:06;;;;;;;2.23;2.03;;;8.50;99.90;;;;;;10288894;28;20244;-85
2022/04/16 03:32:09;;;;;;;7.70;2.53;;;10.00;99.90;;;;;;10287234;28;20295;-85
2022/04/16 03:37:11;;;;;;;8.83;4.53;;;7.40;99.90;;;;;;10282883;28;20294;-85
2022/04/16 03:42:14;;;;;;;3.80;2.97;;;9.10;99.90;;;;;;10258084;28;20435;-85
2022/04/16 03:47:16;;;;;;;16.43;6.73;;;11.40;99.90;;;;;;10281589;28;20290;-86
2022/04/16 03:52:19;;;;;;;7.13;4.80;;;10.60;99.90;;;;;;10284076;28;20261;-85
2022/04/16 04:02:50;;;;;;;5.00;2.30;;;10.20;99.90;;;;;;10261602;28;20290;-85
2022/04/16 04:07:53;;;;;;;5.23;3.10;;;8.40;99.90;;;;;;10268209;28;20317;-86
2022/04/16 04:12:55;;;;;;;3.07;2.67;;;7.80;99.90;;;;;;10283372;28;20270;-85
2022/04/16 04:17:59;;;;;;;3.57;2.83;;;9.20;99.90;;;;;;10282823;28;20423;-85
2022/04/16 04:23:03;;;;;;;3.47;2.77;;;8.30;99.90;;;;;;10264387;28;20303;-85
2022/04/16 04:28:06;;;;;;;2.60;1.67;;;10.80;99.90;;;;;;10263387;28;20375;-85
2022/04/16 04:33:09;;;;;;;4.23;2.47;;;7.70;95.60;;;;;;10271255;28;20302;-85
2022/04/16 04:38:11;;;;;;;3.37;2.60;;;8.50;99.90;;;;;;10278424;28;20297;-86
2022/04/16 04:43:14;;;;;;;3.07;1.87;;;9.90;99.90;;;;;;10278832;28;20257;-85
2022/04/16 04:48:16;;;;;;;4.20;2.20;;;9.20;99.90;;;;;;10282913;28;20317;-85
2022/04/16 04:53:19;;;;;;;4.77;2.40;;;8.70;99.90;;;;;;10278571;28;20310;-85
2022/04/16 04:58:21;;;;;;;2.93;1.70;;;8.80;99.90;;;;;;10277645;28;20291;-86
2022/04/16 05:03:24;;;;;;;2.20;1.83;;;9.50;99.90;;;;;;10274839;28;20669;-86
2022/04/16 05:08:26;;;;;;;4.33;2.70;;;8.10;99.90;;;;;;10280235;28;21496;-85
2022/04/16 05:13:29;;;;;;;2.97;2.27;;;10.40;99.90;;;;;;10279626;28;20322;-85
2022/04/16 05:18:32;;;;;;;4.53;2.33;;;7.30;99.00;;;;;;10270476;28;20357;-85
2022/04/16 05:23:39;;;;;;;5.70;2.27;;;5.10;99.90;;;;;;10269827;28;20233;-84
2022/04/16 05:28:43;;;;;;;2.43;2.17;;;6.50;99.90;;;;;;10253500;28;20384;-84
2022/04/16 05:39:06;;;;;;;2.20;1.60;;;6.10;99.90;;;;;;10278818;28;20304;-85
2022/04/16 05:44:09;;;;;;;3.00;2.00;;;5.30;99.90;;;;;;10281171;28;20488;-85
2022/04/16 05:49:11;;;;;;;4.33;2.93;;;6.20;99.90;;;;;;10272305;28;20695;-84
2022/04/16 05:54:14;;;;;;;5.03;1.50;;;6.10;99.90;;;;;;10279484;28;20285;-85
2022/04/16 05:59:17;;;;;;;3.13;2.10;;;6.50;99.90;;;;;;10282586;28;21167;-84
2022/04/16 06:04:19;;;;;;;2.80;1.90;;;4.80;99.90;;;;;;10281681;28;20369;-85
2022/04/16 06:09:22;;;;;;;4.73;2.43;;;4.70;99.90;;;;;;10278551;28;20761;-84
2022/04/16 06:14:24;;;;;;;3.60;2.00;;;6.40;99.90;;;;;;10279560;28;20334;-88
2022/04/16 06:19:27;;;;;;;3.53;1.80;;;5.70;99.90;;;;;;10271080;28;20292;-84
2022/04/16 06:24:30;;;;;;;3.70;2.10;;;5.70;99.90;;;;;;10283703;28;20379;-84
2022/04/16 06:29:32;;;;;;;4.03;1.83;;;7.00;99.90;;;;;;10265642;28;20389;-83
2022/04/16 06:34:34;;;;;;;3.73;2.33;;;7.20;99.90;;;;;;10286223;28;20237;-83
2022/04/16 06:39:37;;;;;;;3.23;2.47;;;7.40;99.90;;;;;;10292070;28;20239;-84
2022/04/16 06:44:40;;;;;;;2.53;2.33;;;6.40;99.90;;;;;;10277119;28;20562;-84
2022/04/16 06:49:42;;;;;;;1.70;1.60;;;7.00;99.90;;;;;;10309116;28;20269;-84
2022/04/16 06:54:48;;;;;;;3.20;2.10;;;8.00;99.90;;;;;;10317238;28;20668;-85
2022/04/16 06:59:51;;;;;;;2.83;1.87;;;7.00;99.90;;;;;;10299705;28;20276;-85
2022/04/16 07:04:54;;;;;;;2.67;1.80;;;8.70;99.90;;;;;;10312713;28;20271;-85
2022/04/16 07:09:57;;;;;;;2.83;2.00;;;8.10;99.90;;;;;;10291690;28;20315;-85
2022/04/16 07:14:59;;;;;;;3.17;2.17;;;7.60;99.90;;;;;;10309689;28;20233;-85
2022/04/16 07:20:02;;;;;;;2.93;2.10;;;6.00;99.90;;;;;;10310156;28;20305;-85
2022/04/16 07:25:05;;;;;;;3.60;1.90;;;8.10;99.50;;;;;;10301551;28;20319;-85
2022/04/16 07:30:08;;;;;;;3.13;2.33;;;6.80;99.00;;;;;;10311955;28;20253;-85
2022/04/16 07:35:11;;;;;;;3.17;2.77;;;7.30;99.90;;;;;;10289720;28;20240;-85
2022/04/16 07:40:13;;;;;;;4.20;2.23;;;9.50;99.90;;;;;;10286947;28;20899;-85
2022/04/16 07:45:16;;;;;;;2.87;2.40;;;9.00;99.90;;;;;;10308212;28;20700;-86
2022/04/16 07:50:19;;;;;;;2.97;2.60;;;10.10;95.00;;;;;;10310116;28;20260;-85
2022/04/16 07:55:22;;;;;;;4.53;2.50;;;12.00;99.90;;;;;;10296854;28;20241;-84
2022/04/16 08:00:25;;;;;;;4.57;2.30;;;10.40;99.90;;;;;;10299206;28;20247;-83
2022/04/16 08:05:28;;;;;;;2.93;2.30;;;11.90;87.10;;;;;;10256336;28;20249;-83
2022/04/16 08:10:31;;;;;;;2.60;2.40;;;10.70;94.40;;;;;;10273181;28;20247;-84
2022/04/16 08:15:34;;;;;;;2.70;2.20;;;10.50;84.80;;;;;;10290321;28;20238;-83
2022/04/16 08:20:37;;;;;;;3.63;3.33;;;9.60;98.90;;;;;;10289934;28;20312;-83
2022/04/16 08:30:42;;;;;;;1.60;1.50;;;9.50;97.30;;;;;;10289768;28;20316;-83
2022/04/16 08:35:45;;;;;;;3.50;3.17;;;8.50;96.00;;;;;;10289440;28;20290;-83
2022/04/16 08:40:50;;;;;;;2.40;1.47;;;9.60;99.90;;;;;;10288790;28;20317;-83
2022/04/16 08:45:55;;;;;;;2.50;2.30;;;9.20;93.40;;;;;;10289305;28;20556;-83
2022/04/16 08:50:58;;;;;;;2.40;2.20;;;9.70;92.50;;;;;;10288631;28;20317;-83
2022/04/16 08:56:01;;;;;;;2.27;2.00;;;11.10;99.90;;;;;;10288792;28;20248;-83
2022/04/16 09:01:04;;;;;;;3.70;2.00;;;10.50;90.70;;;;;;10254736;28;20568;-83
2022/04/16 09:06:07;;;;;;;4.57;2.10;;;8.80;83.30;;;;;;10288162;28;20277;-83
2022/04/16 09:11:11;;;;;;;4.17;2.10;;;8.40;99.90;;;;;;10288411;28;20261;-83
2022/04/16 09:16:14;;;;;;;2.97;2.13;;;9.70;86.40;;;;;;10271644;28;20233;-83
2022/04/16 09:21:29;;;;;;;1.90;1.80;;;9.90;87.30;;;;;;10255786;28;20249;-83
2022/04/16 09:26:39;;;;;;;3.53;2.17;;;10.60;91.30;;;;;;10290573;28;20605;-83
2022/04/16 09:31:45;;;;;;;2.00;1.80;;;9.40;90.70;;;;;;10271198;28;20234;-83
2022/04/16 09:36:49;;;;;;;5.70;2.20;;;8.50;85.00;;;;;;10298799;28;20299;-83
2022/04/16 09:41:51;;;;;;;3.00;2.30;;;7.70;83.20;;;;;;10294164;28;20212;-83
2022/04/16 09:46:55;;;;;;;4.47;2.43;;;9.10;99.90;;;;;;10311351;28;20202;-83
2022/04/16 09:52:05;;;;;;;2.60;2.20;;;9.30;96.10;;;;;;10310923;28;20291;-83
2022/04/16 09:57:09;;;;;;;4.03;2.53;;;8.90;80.80;;;;;;10328695;28;20208;-83
2022/04/16 10:02:15;;;;;;;5.50;2.27;;;9.30;85.00;;;;;;10369848;28;20189;-87
2022/04/16 10:07:18;;;;;;;2.90;1.90;;;9.40;84.90;;;;;;10353951;28;20194;-84
2022/04/16 10:17:30;;;;;;;2.70;2.07;;;11.60;82.70;;;;;;10337916;28;20238;-84
2022/04/16 10:22:33;;;;;;;3.93;2.27;;;10.20;84.20;;;;;;10371377;28;20189;-84
2022/04/16 10:27:42;;;;;;;3.70;2.40;;;10.50;80.40;;;;;;10356334;28;20218;-84
2022/04/16 10:32:51;;;;;;;5.43;2.23;;;9.10;75.00;;;;;;10359221;28;20436;-84
2022/04/16 10:37:59;;;;;;;2.53;2.33;;;10.00;80.20;;;;;;10372314;28;20198;-84
2022/04/16 10:43:02;;;;;;;3.33;2.40;;;11.70;85.80;;;;;;10384627;28;20217;-84
2022/04/16 10:48:07;;;;;;;2.30;2.10;;;9.50;75.30;;;;;;10359835;28;20219;-84
2022/04/16 10:53:10;;;;;;;4.07;2.43;;;10.60;84.50;;;;;;10354370;28;20222;-84
2022/04/16 10:58:12;;;;;;;3.60;2.07;;;12.10;72.80;;;;;;10340484;28;20229;-83
2022/04/16 11:03:27;;;;;;;2.13;1.80;;;11.80;69.30;;;;;;10386089;28;20223;-83
2022/04/16 11:08:32;;;;;;;2.20;2.00;;;11.10;79.10;;;;;;10360905;28;20198;-83
2022/04/16 11:13:42;;;;;;;3.40;2.43;;;11.40;76.10;;;;;;10357319;28;20223;-83
2022/04/16 11:18:47;;;;;;;4.67;2.23;;;11.20;71.10;;;;;;10351824;28;20242;-83
2022/04/16 11:23:52;;;;;;;2.60;1.87;;;10.10;75.70;;;;;;10358506;28;20217;-82
2022/04/16 11:34:18;;;;;;;1.77;1.67;;;11.20;69.20;;;;;;10374941;28;20189;-83
2022/04/16 11:39:25;;;;;;;2.47;2.17;;;10.60;79.50;;;;;;10343056;28;20402;-83
2022/04/16 11:44:44;;;;;;;3.87;2.10;;;10.30;90.00;;;;;;10311235;28;20245;-83
2022/04/16 11:49:56;;;;;;;2.17;1.97;;;10.70;73.90;;;;;;10334222;28;20237;-84
2022/04/16 11:55:07;;;;;;;1.70;1.60;;;10.60;72.20;;;;;;10346135;28;20209;-84
2022/04/16 12:00:13;;;;;;;2.90;1.90;;;10.60;70.40;;;;;;10336818;28;20246;-84
2022/04/16 12:05:29;;;;;;;2.63;2.00;;;10.50;71.70;;;;;;10339379;28;20242;-83
2022/04/16 12:10:31;;;;;;;2.63;1.70;;;11.30;74.70;;;;;;10351821;28;20238;-83
2022/04/16 12:15:34;;;;;;;2.60;2.40;;;10.40;75.20;;;;;;10364282;28;20202;-84
2022/04/16 12:20:46;;;;;;;1.60;1.50;;;10.20;74.70;;;;;;10353391;28;20235;-82
2022/04/16 12:25:50;;;;;;;2.10;1.90;;;11.60;72.10;;;;;;10352996;28;20266;-83
2022/04/16 12:30:52;;;;;;;1.83;1.67;;;11.50;70.90;;;;;;10365349;28;20235;-83
2022/04/16 12:35:56;;;;;;;2.37;1.80;;;11.20;78.10;;;;;;10314185;28;20220;-82
2022/04/16 12:41:05;;;;;;;3.43;2.20;;;10.60;66.40;;;;;;10306181;28;20257;-82
2022/04/16 12:46:07;;;;;;;2.33;1.70;;;11.60;75.10;;;;;;10315051;28;20207;-82
2022/04/16 12:51:13;;;;;;;2.87;1.63;;;11.50;70.50;;;;;;10316377;28;20222;-84
2022/04/16 12:56:16;;;;;;;1.70;1.60;;;10.30;66.60;;;;;;10298841;28;20280;-83
2022/04/16 13:01:18;;;;;;;1.57;1.47;;;11.00;64.60;;;;;;10282777;28;20679;-83
2022/04/16 13:06:21;;;;;;;2.33;1.63;;;11.00;65.30;;;;;;10310299;28;20731;-83
2022/04/16 13:11:24;;;;;;;2.53;1.33;;;11.10;66.30;;;;;;10278522;28;20719;-83
2022/04/16 13:16:26;;;;;;;2.00;1.53;;;11.60;68.70;;;;;;10305941;28;20205;-83
2022/04/16 13:21:29;;;;;;;2.10;1.20;;;12.30;63.50;;;;;;10296768;28;20298;-83
2022/04/16 13:26:31;;;;;;;3.17;1.30;;;11.50;64.30;;;;;;10326792;28;20318;-84
2022/04/16 13:31:34;;;;;;;2.87;1.60;;;11.60;61.60;;;;;;10327707;28;20712;-84
2022/04/16 13:36:38;;;;;;;3.97;1.60;;;11.90;61.20;;;;;;10298128;28;20772;-84
2022/04/16 13:41:40;;;;;;;1.97;1.70;;;11.50;62.10;;;;;;10300836;28;20248;-83
2022/04/16 13:46:45;;;;;;;3.03;1.87;;;12.60;64.50;;;;;;10302270;28;20210;-83
2022/04/16 13:51:47;;;;;;;2.50;1.10;;;11.70;63.60;;;;;;10294118;28;20264;-83
2022/04/16 13:56:50;;;;;;;2.53;1.00;;;12.20;59.90;;;;;;10277198;28;20215;-84
2022/04/16 14:01:52;;;;;;;2.50;1.40;;;12.20;59.10;;;;;;10295200;28;20317;-83
2022/04/16 14:06:56;;;;;;;1.67;1.40;;;12.40;61.40;;;;;;10277065;28;20244;-83
2022/04/16 14:11:59;;;;;;;2.47;1.03;;;12.90;61.00;;;;;;10314017;28;20319;-84
2022/04/16 14:17:02;;;;;;;1.73;1.20;;;12.50;61.20;;;;;;10279965;28;20728;-83
2022/04/16 14:22:06;;;;;;;2.73;1.17;;;11.70;60.90;;;;;;10333616;28;20246;-82
2022/04/16 14:27:09;;;;;;;1.77;1.37;;;12.80;61.50;;;;;;10325497;28;20261;-84
2022/04/16 14:32:11;;;;;;;1.30;0.87;;;11.90;60.30;;;;;;10312097;28;20259;-82
2022/04/16 14:37:14;;;;;;;1.67;0.90;;;12.10;64.50;;;;;;9625664;28;10021564;-82
2022/04/16 14:42:18;;;;;;;1.97;1.00;;;12.10;62.20;;;;;;10301897;28;20289;-84
2022/04/16 14:47:23;;;;;;;3.03;1.47;;;13.10;60.60;;;;;;10303314;28;20294;-82
2022/04/16 14:52:26;;;;;;;5.13;1.30;;;12.60;59.40;;;;;;10275997;28;20667;-82
2022/04/16 14:57:28;;;;;;;1.73;1.00;;;12.30;61.80;;;;;;10291743;28;20235;-82
2022/04/16 15:02:31;;;;;;;3.30;1.20;;;12.20;61.00;;;;;;10316703;28;20240;-83
2022/04/16 15:07:33;;;;;;;2.00;1.37;;;12.80;58.30;;;;;;10317809;28;20240;-83
2022/04/16 15:12:36;;;;;;;5.70;1.37;;;11.90;60.90;;;;;;10294928;28;20265;-83
2022/04/16 15:17:40;;;;;;;1.77;1.10;;;11.60;60.90;;;;;;10295262;28;20237;-84
2022/04/16 15:22:42;;;;;;;2.27;1.40;;;11.60;61.70;;;;;;10307178;28;20210;-90
2022/04/16 15:27:46;;;;;;;1.33;1.00;;;11.10;61.40;;;;;;10314271;28;20320;-89
2022/04/16 15:32:49;;;;;;;1.43;0.93;;;11.50;61.40;;;;;;10278693;28;20270;-89
2022/04/16 15:37:55;;;;;;;1.53;0.93;;;11.20;62.90;;;;;;10284772;28;20287;-89
2022/04/16 15:43:00;;;;;;;1.33;1.20;;;11.20;62.50;;;;;;10304171;28;20205;-88
2022/04/16 15:48:02;;;;;;;4.53;1.13;;;11.60;68.60;;;;;;10295767;28;20313;-89
2022/04/16 15:53:05;;;;;;;2.17;1.10;;;11.20;60.30;;;;;;10283897;28;20288;-90
2022/04/16 15:58:07;;;;;;;1.37;1.00;;;11.00;61.20;;;;;;10280698;28;20226;-90
2022/04/16 16:03:10;;;;;;;1.20;1.07;;;10.80;60.90;;;;;;10302877;28;20735;-90
2022/04/16 16:08:12;;;;;;;1.23;0.80;;;10.80;59.60;;;;;;10307707;23;20642;-85
2022/04/16 16:13:15;;;;;;;2.73;1.27;;;10.70;62.30;;;;;;10295854;28;20257;-83
2022/04/16 16:18:18;;;;;;;0.87;0.80;;;10.60;59.20;;;;;;10293658;28;20246;-83
2022/04/16 16:23:21;;;;;;;3.00;1.10;;;10.80;63.50;;;;;;10325729;28;20241;-83
2022/04/16 16:28:23;;;;;;;1.83;1.20;;;10.60;60.50;;;;;;10318970;28;20240;-82
2022/04/16 16:33:26;;;;;;;3.30;1.27;;;10.50;63.80;;;;;;10320283;28;20253;-84
2022/04/16 16:38:29;;;;;;;4.27;2.07;;;10.60;63.40;;;;;;10299150;28;20241;-85
2022/04/16 16:43:34;;;;;;;1.43;1.20;;;10.70;68.70;;;;;;10311155;28;20264;-85
2022/04/16 16:48:37;;;;;;;3.97;1.40;;;10.30;61.30;;;;;;10317072;28;21386;-83
2022/04/16 16:53:43;;;;;;;2.67;0.93;;;10.30;64.00;;;;;;10286162;28;20260;-83
2022/04/16 16:58:47;;;;;;;2.10;0.90;;;10.30;61.50;;;;;;10305827;28;20241;-83
2022/04/16 17:09:10;;;;;;;2.50;1.17;;;10.20;72.40;;;;;;10292907;28;20663;-82
2022/04/16 17:19:34;;;;;;;7.37;3.00;;;9.80;64.40;;;;;;10308962;28;20209;-82
2022/04/16 17:24:36;;;;;;;3.00;1.73;;;9.40;68.00;;;;;;10326202;28;20241;-82
2022/04/16 17:29:39;;;;;;;1.40;1.10;;;9.10;67.10;;;;;;10326897;28;20240;-82
2022/04/16 17:34:42;;;;;;;4.07;1.23;;;8.70;68.40;;;;;;10324370;28;20693;-82
2022/04/16 17:39:44;;;;;;;5.00;1.47;;;8.60;69.70;;;;;;10288495;28;20304;-82
2022/04/16 17:44:48;;;;;;;1.70;1.07;;;8.30;70.50;;;;;;10295783;28;20216;-83
2022/04/16 17:49:51;;;;;;;1.90;1.10;;;8.00;71.60;;;;;;10296438;28;20307;-83
2022/04/16 17:54:54;;;;;;;5.07;1.80;;;7.60;75.90;;;;;;10294006;28;20257;-82
2022/04/16 17:59:57;;;;;;;5.07;1.77;;;;;;;;;;10270101;28;20230;-83
2022/04/16 18:04:59;;;;;;;2.30;1.67;;;7.20;74.90;;;;;;10302492;28;20328;-85
2022/04/16 18:10:03;;;;;;;7.77;2.80;;;7.20;76.00;;;;;;10318568;28;20244;-83
2022/04/16 18:15:06;;;;;;;1.80;1.57;;;7.20;75.00;;;;;;10317298;28;20248;-84
2022/04/16 18:20:14;;;;;;;4.83;1.73;;;6.20;85.70;;;;;;10298399;28;20237;-83
2022/04/16 18:25:19;;;;;;;3.50;1.77;;;6.20;81.40;;;;;;10293567;28;20222;-83
2022/04/16 18:30:22;;;;;;;4.13;2.17;;;;;;;;;;10287109;28;20304;-84
2022/04/16 18:35:26;;;;;;;3.37;1.83;;;6.10;81.50;;;;;;10272564;28;20319;-83
2022/04/16 18:40:28;;;;;;;6.33;2.30;;;6.20;81.70;;;;;;10302613;28;20236;-82
2022/04/16 18:45:33;;;;;;;3.17;2.20;;;6.30;81.30;;;;;;10310812;28;21051;-83
2022/04/16 18:50:36;;;;;;;3.23;1.93;;;6.20;80.90;;;;;;10315064;28;20217;-83
2022/04/16 18:55:38;;;;;;;2.83;1.97;;;6.20;81.40;;;;;;10331615;28;20329;-80
2022/04/16 19:11:23;;;;;;;3.17;1.60;;;5.90;83.20;;;;;;10327580;28;20306;-79
2022/04/16 19:16:39;;;;;;;3.47;2.27;;;5.40;90.10;;;;;;10310072;28;20259;-79
2022/04/16 19:21:42;;;;;;;4.77;3.17;;;4.70;95.50;;;;;;10293956;28;20295;-80
2022/04/16 19:26:51;;;;;;;4.60;2.73;;;;;;;;;;10328081;28;20252;-80
2022/04/16 19:31:54;;;;;;;3.80;2.23;;;5.20;90.40;;;;;;10328688;28;20319;-80
2022/04/16 19:36:56;;;;;;;4.40;2.50;;;5.40;88.40;;;;;;10310641;28;20232;-79
2022/04/16 19:41:59;;;;;;;4.43;2.43;;;5.30;89.30;;;;;;10287058;28;20761;-80
2022/04/16 19:47:02;;;;;;;6.10;2.33;;;5.30;90.00;;;;;;10313193;28;20272;-80
2022/04/16 19:52:04;;;;;;;4.60;2.53;;;4.80;91.00;;;;;;10310092;28;20256;-80
2022/04/16 19:57:07;;;;;;;4.27;2.20;;;5.30;89.20;;;;;;10325314;28;20237;-81
2022/04/16 20:02:09;;;;;;;6.83;2.23;;;5.30;88.60;;;;;;10326562;28;20260;-81
2022/04/16 20:07:13;;;;;;;3.57;2.17;;;;;;;;;;10326480;28;20323;-80
2022/04/16 20:12:15;;;;;;;3.73;2.60;;;5.00;91.30;;;;;;10321901;28;20257;-81
2022/04/16 20:17:18;;;;;;;4.43;2.17;;;4.60;92.30;;;;;;10327009;28;20275;-83
2022/04/16 20:22:21;;;;;;;3.60;2.17;;;4.30;93.20;;;;;;10309556;28;20244;-80
2022/04/16 20:27:23;;;;;;;4.93;2.60;;;4.00;95.50;;;;;;10327878;28;20616;-80
2022/04/16 20:32:25;;;;;;;5.53;3.13;;;4.50;93.20;;;;;;10309681;28;20268;-81
2022/04/16 20:37:28;;;;;;;6.73;3.50;;;4.50;93.60;;;;;;10314226;28;20272;-81
2022/04/16 20:47:56;;;;;;;5.77;3.33;;;4.50;93.80;;;;;;10267079;28;20244;-81
2022/04/16 20:53:17;;;;;;;4.17;3.13;;;4.30;94.50;;;;;;10318560;28;20268;-81
2022/04/16 20:58:21;;;;;;;11.10;3.80;;;4.10;95.00;;;;;;10324829;28;20240;-81
2022/04/16 21:03:23;;;;;;;7.20;4.10;;;4.10;96.40;;;;;;10324098;28;20677;-81
2022/04/16 21:08:26;;;;;;;10.97;4.50;;;;;;;;;;10325488;28;20260;-80
2022/04/16 21:13:29;;;;;;;10.03;4.20;;;3.90;95.70;;;;;;10300122;28;20260;-80
2022/04/16 21:18:31;;;;;;;6.63;3.97;;;3.70;95.90;;;;;;10323981;28;20316;-81
2022/04/16 21:23:34;;;;;;;6.67;4.57;;;3.90;94.80;;;;;;10322748;28;20267;-80
2022/04/16 21:28:37;;;;;;;6.90;4.77;;;;;;;;;;10324200;28;20295;-81
2022/04/16 21:33:39;;;;;;;7.83;4.70;;;3.60;95.20;;;;;;10308515;28;20264;-80
2022/04/16 21:38:42;;;;;;;4.63;3.87;;;3.60;99.70;;;;;;10325252;28;20660;-82
2022/04/16 21:43:44;;;;;;;8.00;5.43;;;5.50;99.90;;;;;;10317750;28;20253;-81
2022/04/16 21:48:47;;;;;;;7.77;4.63;;;6.40;99.90;;;;;;10302077;28;20218;-81
2022/04/16 21:53:50;;;;;;;4.20;3.80;;;7.90;99.90;;;;;;10288039;28;20257;-81
2022/04/16 21:58:52;;;;;;;4.17;3.43;;;8.70;99.90;;;;;;10305638;28;20283;-81
2022/04/16 22:03:55;;;;;;;5.77;4.37;;;9.50;99.90;;;;;;10305958;28;20241;-84
2022/04/16 22:09:01;;;;;;;5.27;3.67;;;9.60;99.90;;;;;;10270548;28;20241;-83
2022/04/16 22:14:03;;;;;;;3.83;3.40;;;10.10;99.90;;;;;;10280863;28;20264;-82
2022/04/16 22:19:08;;;;;;;3.83;3.27;;;;;;;;;;10274814;28;20232;-84
2022/04/16 22:24:11;;;;;;;3.83;3.47;;;10.80;99.90;;;;;;10270977;28;20686;-81
2022/04/16 22:29:13;;;;;;;3.83;3.33;;;11.00;99.90;;;;;;10254720;29;20238;-80
2022/04/16 22:34:16;;;;;;;4.67;3.50;;;11.50;99.90;;;;;;10253986;28;20320;-80
2022/04/16 22:44:39;;;;;;;5.67;4.07;;;11.80;99.90;;;;;;10275456;28;20268;-81
2022/04/16 22:49:42;;;;;;;3.80;3.07;;;12.10;99.90;;;;;;10266151;28;20783;-80
2022/04/16 22:54:44;;;;;;;4.53;3.00;;;12.10;99.90;;;;;;10270465;28;20672;-79
2022/04/16 22:59:47;;;;;;;3.73;3.00;;;12.20;99.90;;;;;;10267513;28;20293;-80
2022/04/16 23:04:49;;;;;;;4.47;3.30;;;12.20;99.90;;;;;;10292207;28;20253;-80
2022/04/16 23:09:52;;;;;;;6.70;3.33;;;12.20;99.90;;;;;;10274899;28;20563;-80
2022/04/16 23:20:16;;;;;;;5.63;3.20;;;12.40;99.90;;;;;;10289914;28;20272;-80
2022/04/16 23:25:19;;;;;;;3.80;2.90;;;12.50;99.90;;;;;;10251763;28;20627;-80
2022/04/16 23:30:22;;;;;;;3.37;3.07;;;13.10;99.90;;;;;;10252124;29;20242;-79
2022/04/16 23:35:25;;;;;;;4.63;3.20;;;13.10;99.90;;;;;;10271345;28;20397;-80
2022/04/16 23:40:28;;;;;;;4.37;3.40;;;13.10;99.90;;;;;;10288638;28;20213;-80
2022/04/16 23:50:52;;;;;;;5.00;3.47;;;13.20;99.20;;;;;;10288881;28;20304;-79
2022/04/16 23:55:56;;;;;;;4.53;3.67;;;13.20;99.60;;;;;;10291141;28;20723;-79
